sensor_id;sensor_type;location;lat;lon;timestamp;P1;durP1;ratioP1;P2;durP2;ratioP2
6336;SDS011;3201;49.962;11.618;2022-10-26T00:01:15;1.63;;;1.07;;
6336;SDS011;3201;49.962;11.618;2022-10-26T00:03:41;1.13;;;1.00;;
6336;SDS011;3201;49.962;11.618;2022-10-26T00:06:10;1.97;;;1.00;;
6336;SDS011;3201;49.962;11.618;2022-10-26T00:08:37;4.73;;;1.10;;
6336;SDS011;3201;49.962;11.618;2022-10-26T00:11:03;0.80;;;0.60;;
6336;SDS011;3201;49.962;11.618;2022-10-26T00:13:29;1.47;;;1.17;;
6336;SDS011;3201;49.962;11.618;2022-10-26T00:15:54;1.37;;;1.10;;
6336;SDS011;3201;49.962;11.618;2022-10-26T00:18:20;0.90;;;0.83;;
6336;SDS011;3201;49.962;11.618;2022-10-26T00:20:45;0.60;;;0.57;;
6336;SDS011;3201;49.962;11.618;2022-10-26T00:23:11;1.53;;;0.80;;
6336;SDS011;3201;49.962;11.618;2022-10-26T00:25:36;3.80;;;1.03;;
6336;SDS011;3201;49.962;11.618;2022-10-26T00:28:02;1.17;;;0.97;;
6336;SDS011;3201;49.962;11.618;2022-10-26T00:30:27;1.43;;;1.13;;
6336;SDS011;3201;49.962;11.618;2022-10-26T00:32:52;3.67;;;1.20;;
6336;SDS011;3201;49.962;11.618;2022-10-26T00:35:18;0.90;;;0.90;;
6336;SDS011;3201;49.962;11.618;2022-10-26T00:37:43;1.43;;;1.03;;
6336;SDS011;3201;49.962;11.618;2022-10-26T00:40:09;1.37;;;1.10;;
6336;SDS011;3201;49.962;11.618;2022-10-26T00:42:34;1.97;;;0.80;;
6336;SDS011;3201;49.962;11.618;2022-10-26T00:45:01;1.17;;;1.00;;
6336;SDS011;3201;49.962;11.618;2022-10-26T00:49:58;0.90;;;0.80;;
6336;SDS011;3201;49.962;11.618;2022-10-26T00:52:27;1.73;;;1.13;;
6336;SDS011;3201;49.962;11.618;2022-10-26T00:54:53;0.90;;;0.80;;
6336;SDS011;3201;49.962;11.618;2022-10-26T00:57:18;1.20;;;0.77;;
6336;SDS011;3201;49.962;11.618;2022-10-26T00:59:44;1.80;;;1.20;;
6336;SDS011;3201;49.962;11.618;2022-10-26T01:02:10;1.00;;;0.90;;
6336;SDS011;3201;49.962;11.618;2022-10-26T01:04:36;2.23;;;1.10;;
6336;SDS011;3201;49.962;11.618;2022-10-26T01:07:02;1.63;;;1.10;;
6336;SDS011;3201;49.962;11.618;2022-10-26T01:09:28;2.20;;;1.07;;
6336;SDS011;3201;49.962;11.618;2022-10-26T01:11:54;0.80;;;0.60;;
6336;SDS011;3201;49.962;11.618;2022-10-26T01:14:20;1.23;;;0.90;;
6336;SDS011;3201;49.962;11.618;2022-10-26T01:19:31;1.00;;;0.90;;
6336;SDS011;3201;49.962;11.618;2022-10-26T01:22:46;1.00;;;0.70;;
6336;SDS011;3201;49.962;11.618;2022-10-26T01:25:11;0.90;;;0.80;;
6336;SDS011;3201;49.962;11.618;2022-10-26T01:27:46;1.30;;;1.07;;
6336;SDS011;3201;49.962;11.618;2022-10-26T01:30:22;1.13;;;1.00;;
6336;SDS011;3201;49.962;11.618;2022-10-26T01:34:07;1.33;;;1.23;;
6336;SDS011;3201;49.962;11.618;2022-10-26T01:41:27;1.30;;;1.20;;
6336;SDS011;3201;49.962;11.618;2022-10-26T01:43:57;0.80;;;0.60;;
6336;SDS011;3201;49.962;11.618;2022-10-26T01:46:26;0.93;;;0.83;;
6336;SDS011;3201;49.962;11.618;2022-10-26T01:48:54;0.90;;;0.70;;
6336;SDS011;3201;49.962;11.618;2022-10-26T01:51:23;1.47;;;1.00;;
6336;SDS011;3201;49.962;11.618;2022-10-26T01:53:49;1.17;;;0.93;;
6336;SDS011;3201;49.962;11.618;2022-10-26T01:56:17;1.53;;;1.00;;
6336;SDS011;3201;49.962;11.618;2022-10-26T02:07:01;1.30;;;0.83;;
6336;SDS011;3201;49.962;11.618;2022-10-26T02:10:49;0.97;;;0.67;;
6336;SDS011;3201;49.962;11.618;2022-10-26T02:12:20;2.90;;;0.93;;
6336;SDS011;3201;49.962;11.618;2022-10-26T02:15:06;0.83;;;0.60;;
6336;SDS011;3201;49.962;11.618;2022-10-26T02:17:37;2.00;;;1.20;;
6336;SDS011;3201;49.962;11.618;2022-10-26T02:20:12;0.90;;;0.60;;
6336;SDS011;3201;49.962;11.618;2022-10-26T02:22:44;1.57;;;1.00;;
6336;SDS011;3201;49.962;11.618;2022-10-26T02:25:13;1.00;;;0.90;;
6336;SDS011;3201;49.962;11.618;2022-10-26T02:27:42;1.20;;;0.80;;
6336;SDS011;3201;49.962;11.618;2022-10-26T02:30:14;0.83;;;0.80;;
6336;SDS011;3201;49.962;11.618;2022-10-26T02:32:41;1.10;;;0.90;;
6336;SDS011;3201;49.962;11.618;2022-10-26T02:35:09;1.17;;;1.00;;
6336;SDS011;3201;49.962;11.618;2022-10-26T02:37:36;1.20;;;0.70;;
6336;SDS011;3201;49.962;11.618;2022-10-26T02:40:03;1.20;;;0.90;;
6336;SDS011;3201;49.962;11.618;2022-10-26T02:42:33;1.67;;;1.07;;
6336;SDS011;3201;49.962;11.618;2022-10-26T02:45:02;0.90;;;0.80;;
6336;SDS011;3201;49.962;11.618;2022-10-26T02:47:29;1.60;;;1.13;;
6336;SDS011;3201;49.962;11.618;2022-10-26T02:49:54;1.97;;;0.90;;
6336;SDS011;3201;49.962;11.618;2022-10-26T02:52:26;1.03;;;0.73;;
6336;SDS011;3201;49.962;11.618;2022-10-26T02:55:03;0.93;;;0.70;;
6336;SDS011;3201;49.962;11.618;2022-10-26T02:57:33;2.50;;;0.90;;
6336;SDS011;3201;49.962;11.618;2022-10-26T03:00:04;1.00;;;0.90;;
6336;SDS011;3201;49.962;11.618;2022-10-26T03:02:32;1.37;;;1.00;;
6336;SDS011;3201;49.962;11.618;2022-10-26T03:05:03;0.93;;;0.60;;
6336;SDS011;3201;49.962;11.618;2022-10-26T03:07:32;1.30;;;1.03;;
6336;SDS011;3201;49.962;11.618;2022-10-26T03:09:57;1.00;;;0.70;;
6336;SDS011;3201;49.962;11.618;2022-10-26T03:12:22;0.90;;;0.80;;
6336;SDS011;3201;49.962;11.618;2022-10-26T03:14:48;1.00;;;0.70;;
6336;SDS011;3201;49.962;11.618;2022-10-26T03:17:13;1.10;;;0.93;;
6336;SDS011;3201;49.962;11.618;2022-10-26T03:19:38;0.60;;;0.60;;
6336;SDS011;3201;49.962;11.618;2022-10-26T03:22:04;0.80;;;0.70;;
6336;SDS011;3201;49.962;11.618;2022-10-26T03:24:29;0.80;;;0.70;;
6336;SDS011;3201;49.962;11.618;2022-10-26T03:26:54;1.83;;;0.80;;
6336;SDS011;3201;49.962;11.618;2022-10-26T03:29:20;1.30;;;1.10;;
6336;SDS011;3201;49.962;11.618;2022-10-26T03:31:45;1.17;;;0.90;;
6336;SDS011;3201;49.962;11.618;2022-10-26T03:34:10;0.87;;;0.80;;
6336;SDS011;3201;49.962;11.618;2022-10-26T03:36:36;0.83;;;0.73;;
6336;SDS011;3201;49.962;11.618;2022-10-26T03:39:01;1.30;;;0.70;;
6336;SDS011;3201;49.962;11.618;2022-10-26T03:41:27;2.10;;;0.70;;
6336;SDS011;3201;49.962;11.618;2022-10-26T03:43:52;1.50;;;1.00;;
6336;SDS011;3201;49.962;11.618;2022-10-26T03:46:17;0.73;;;0.73;;
6336;SDS011;3201;49.962;11.618;2022-10-26T03:48:43;1.53;;;1.00;;
6336;SDS011;3201;49.962;11.618;2022-10-26T03:51:08;1.20;;;0.73;;
6336;SDS011;3201;49.962;11.618;2022-10-26T03:53:33;1.30;;;0.80;;
6336;SDS011;3201;49.962;11.618;2022-10-26T03:55:59;1.10;;;0.80;;
6336;SDS011;3201;49.962;11.618;2022-10-26T03:58:24;1.30;;;0.87;;
6336;SDS011;3201;49.962;11.618;2022-10-26T04:00:50;1.00;;;0.90;;
6336;SDS011;3201;49.962;11.618;2022-10-26T04:03:15;1.30;;;1.00;;
6336;SDS011;3201;49.962;11.618;2022-10-26T04:05:40;0.77;;;0.63;;
6336;SDS011;3201;49.962;11.618;2022-10-26T04:08:07;1.00;;;0.87;;
6336;SDS011;3201;49.962;11.618;2022-10-26T04:10:32;2.13;;;1.00;;
6336;SDS011;3201;49.962;11.618;2022-10-26T04:12:58;0.80;;;0.70;;
6336;SDS011;3201;49.962;11.618;2022-10-26T04:15:25;1.37;;;1.10;;
6336;SDS011;3201;49.962;11.618;2022-10-26T04:17:54;1.10;;;0.87;;
6336;SDS011;3201;49.962;11.618;2022-10-26T04:20:22;0.97;;;0.60;;
6336;SDS011;3201;49.962;11.618;2022-10-26T04:22:55;0.90;;;0.80;;
6336;SDS011;3201;49.962;11.618;2022-10-26T04:25:21;0.80;;;0.80;;
6336;SDS011;3201;49.962;11.618;2022-10-26T04:27:46;1.00;;;0.63;;
6336;SDS011;3201;49.962;11.618;2022-10-26T04:30:12;0.80;;;0.73;;
6336;SDS011;3201;49.962;11.618;2022-10-26T04:32:37;1.00;;;0.63;;
6336;SDS011;3201;49.962;11.618;2022-10-26T04:35:02;0.90;;;0.80;;
6336;SDS011;3201;49.962;11.618;2022-10-26T04:37:28;0.90;;;0.80;;
6336;SDS011;3201;49.962;11.618;2022-10-26T04:39:53;1.90;;;0.80;;
6336;SDS011;3201;49.962;11.618;2022-10-26T04:42:19;0.70;;;0.50;;
6336;SDS011;3201;49.962;11.618;2022-10-26T04:44:44;0.90;;;0.70;;
6336;SDS011;3201;49.962;11.618;2022-10-26T04:47:09;0.97;;;0.73;;
6336;SDS011;3201;49.962;11.618;2022-10-26T04:49:35;1.33;;;0.80;;
6336;SDS011;3201;49.962;11.618;2022-10-26T04:52:00;2.03;;;0.63;;
6336;SDS011;3201;49.962;11.618;2022-10-26T04:54:25;1.07;;;0.80;;
6336;SDS011;3201;49.962;11.618;2022-10-26T04:56:51;0.80;;;0.63;;
6336;SDS011;3201;49.962;11.618;2022-10-26T04:59:16;1.10;;;0.90;;
6336;SDS011;3201;49.962;11.618;2022-10-26T05:01:42;1.60;;;1.00;;
6336;SDS011;3201;49.962;11.618;2022-10-26T05:04:07;0.80;;;0.70;;
6336;SDS011;3201;49.962;11.618;2022-10-26T05:06:32;0.67;;;0.67;;
6336;SDS011;3201;49.962;11.618;2022-10-26T05:08:58;0.90;;;0.70;;
6336;SDS011;3201;49.962;11.618;2022-10-26T05:11:23;1.23;;;0.60;;
6336;SDS011;3201;49.962;11.618;2022-10-26T05:13:48;1.50;;;0.73;;
6336;SDS011;3201;49.962;11.618;2022-10-26T05:16:14;0.90;;;0.70;;
6336;SDS011;3201;49.962;11.618;2022-10-26T05:18:40;1.07;;;0.80;;
6336;SDS011;3201;49.962;11.618;2022-10-26T05:21:06;0.97;;;0.63;;
6336;SDS011;3201;49.962;11.618;2022-10-26T05:23:34;0.80;;;0.80;;
6336;SDS011;3201;49.962;11.618;2022-10-26T05:25:59;1.37;;;0.73;;
6336;SDS011;3201;49.962;11.618;2022-10-26T05:28:25;0.80;;;0.63;;
6336;SDS011;3201;49.962;11.618;2022-10-26T05:30:50;0.87;;;0.77;;
6336;SDS011;3201;49.962;11.618;2022-10-26T05:33:15;0.70;;;0.57;;
6336;SDS011;3201;49.962;11.618;2022-10-26T05:35:41;0.70;;;0.60;;
6336;SDS011;3201;49.962;11.618;2022-10-26T05:38:07;0.70;;;0.53;;
6336;SDS011;3201;49.962;11.618;2022-10-26T05:40:45;0.90;;;0.80;;
6336;SDS011;3201;49.962;11.618;2022-10-26T05:43:12;1.87;;;0.93;;
6336;SDS011;3201;49.962;11.618;2022-10-26T05:45:38;1.00;;;0.90;;
6336;SDS011;3201;49.962;11.618;2022-10-26T05:48:03;1.00;;;0.70;;
6336;SDS011;3201;49.962;11.618;2022-10-26T05:50:29;1.00;;;0.80;;
6336;SDS011;3201;49.962;11.618;2022-10-26T05:52:55;3.13;;;0.83;;
6336;SDS011;3201;49.962;11.618;2022-10-26T05:55:20;0.93;;;0.70;;
6336;SDS011;3201;49.962;11.618;2022-10-26T05:57:46;1.23;;;0.90;;
6336;SDS011;3201;49.962;11.618;2022-10-26T06:00:16;1.53;;;1.00;;
6336;SDS011;3201;49.962;11.618;2022-10-26T06:04:10;0.97;;;0.87;;
6336;SDS011;3201;49.962;11.618;2022-10-26T06:08:18;1.03;;;0.93;;
6336;SDS011;3201;49.962;11.618;2022-10-26T06:10:45;1.37;;;0.80;;
6336;SDS011;3201;49.962;11.618;2022-10-26T06:13:11;0.80;;;0.60;;
6336;SDS011;3201;49.962;11.618;2022-10-26T06:15:41;0.97;;;0.87;;
6336;SDS011;3201;49.962;11.618;2022-10-26T06:18:22;0.80;;;0.70;;
6336;SDS011;3201;49.962;11.618;2022-10-26T06:31:52;2.60;;;0.70;;
6336;SDS011;3201;49.962;11.618;2022-10-26T06:34:20;2.30;;;0.97;;
6336;SDS011;3201;49.962;11.618;2022-10-26T06:36:50;2.80;;;0.80;;
6336;SDS011;3201;49.962;11.618;2022-10-26T06:39:16;0.80;;;0.80;;
6336;SDS011;3201;49.962;11.618;2022-10-26T06:41:42;1.87;;;0.80;;
6336;SDS011;3201;49.962;11.618;2022-10-26T06:44:08;2.27;;;1.00;;
6336;SDS011;3201;49.962;11.618;2022-10-26T06:46:38;1.67;;;0.73;;
6336;SDS011;3201;49.962;11.618;2022-10-26T06:49:40;0.63;;;0.60;;
6336;SDS011;3201;49.962;11.618;2022-10-26T06:51:59;1.50;;;0.80;;
6336;SDS011;3201;49.962;11.618;2022-10-26T06:56:57;1.90;;;1.00;;
6336;SDS011;3201;49.962;11.618;2022-10-26T06:59:39;0.77;;;0.77;;
6336;SDS011;3201;49.962;11.618;2022-10-26T07:02:10;1.40;;;1.20;;
6336;SDS011;3201;49.962;11.618;2022-10-26T07:04:35;0.87;;;0.57;;
6336;SDS011;3201;49.962;11.618;2022-10-26T07:07:01;1.20;;;0.67;;
6336;SDS011;3201;49.962;11.618;2022-10-26T07:09:26;2.50;;;0.70;;
6336;SDS011;3201;49.962;11.618;2022-10-26T07:11:52;1.13;;;0.70;;
6336;SDS011;3201;49.962;11.618;2022-10-26T07:14:17;5.37;;;0.90;;
6336;SDS011;3201;49.962;11.618;2022-10-26T07:16:43;1.80;;;0.90;;
6336;SDS011;3201;49.962;11.618;2022-10-26T07:19:08;4.20;;;0.83;;
6336;SDS011;3201;49.962;11.618;2022-10-26T07:21:33;4.23;;;0.60;;
6336;SDS011;3201;49.962;11.618;2022-10-26T07:23:59;1.20;;;0.90;;
6336;SDS011;3201;49.962;11.618;2022-10-26T07:26:24;3.53;;;1.00;;
6336;SDS011;3201;49.962;11.618;2022-10-26T07:28:51;4.00;;;1.27;;
6336;SDS011;3201;49.962;11.618;2022-10-26T07:31:16;1.17;;;0.80;;
6336;SDS011;3201;49.962;11.618;2022-10-26T07:33:42;1.73;;;0.90;;
6336;SDS011;3201;49.962;11.618;2022-10-26T07:36:09;1.37;;;0.90;;
6336;SDS011;3201;49.962;11.618;2022-10-26T07:38:36;1.80;;;1.10;;
6336;SDS011;3201;49.962;11.618;2022-10-26T07:41:02;3.63;;;1.30;;
6336;SDS011;3201;49.962;11.618;2022-10-26T07:43:27;1.10;;;0.90;;
6336;SDS011;3201;49.962;11.618;2022-10-26T07:45:53;15.37;;;1.13;;
6336;SDS011;3201;49.962;11.618;2022-10-26T07:48:18;3.93;;;0.90;;
6336;SDS011;3201;49.962;11.618;2022-10-26T07:50:43;40.27;;;3.60;;
6336;SDS011;3201;49.962;11.618;2022-10-26T07:53:09;67.07;;;5.43;;
6336;SDS011;3201;49.962;11.618;2022-10-26T07:55:34;52.57;;;5.67;;
6336;SDS011;3201;49.962;11.618;2022-10-26T07:58:00;30.10;;;3.53;;
6336;SDS011;3201;49.962;11.618;2022-10-26T08:00:25;50.13;;;3.63;;
6336;SDS011;3201;49.962;11.618;2022-10-26T08:02:52;53.10;;;4.53;;
6336;SDS011;3201;49.962;11.618;2022-10-26T08:05:21;40.97;;;3.20;;
6336;SDS011;3201;49.962;11.618;2022-10-26T08:07:47;40.57;;;3.30;;
6336;SDS011;3201;49.962;11.618;2022-10-26T08:10:13;28.43;;;3.40;;
6336;SDS011;3201;49.962;11.618;2022-10-26T08:12:40;32.47;;;3.87;;
6336;SDS011;3201;49.962;11.618;2022-10-26T08:15:06;16.67;;;2.60;;
6336;SDS011;3201;49.962;11.618;2022-10-26T08:17:32;24.73;;;2.97;;
6336;SDS011;3201;49.962;11.618;2022-10-26T08:19:58;51.67;;;3.10;;
6336;SDS011;3201;49.962;11.618;2022-10-26T08:22:23;42.87;;;4.30;;
6336;SDS011;3201;49.962;11.618;2022-10-26T08:24:49;31.57;;;3.07;;
6336;SDS011;3201;49.962;11.618;2022-10-26T08:27:14;22.10;;;2.83;;
6336;SDS011;3201;49.962;11.618;2022-10-26T08:29:40;29.10;;;2.10;;
6336;SDS011;3201;49.962;11.618;2022-10-26T08:32:06;23.77;;;2.73;;
6336;SDS011;3201;49.962;11.618;2022-10-26T08:34:32;25.80;;;2.30;;
6336;SDS011;3201;49.962;11.618;2022-10-26T08:36:57;25.57;;;2.47;;
6336;SDS011;3201;49.962;11.618;2022-10-26T08:39:23;17.00;;;2.37;;
6336;SDS011;3201;49.962;11.618;2022-10-26T08:41:48;19.67;;;2.20;;
6336;SDS011;3201;49.962;11.618;2022-10-26T08:46:56;18.93;;;2.47;;
6336;SDS011;3201;49.962;11.618;2022-10-26T08:49:24;28.87;;;2.53;;
6336;SDS011;3201;49.962;11.618;2022-10-26T08:51:53;17.40;;;2.50;;
6336;SDS011;3201;49.962;11.618;2022-10-26T08:54:26;12.87;;;2.23;;
6336;SDS011;3201;49.962;11.618;2022-10-26T08:56:58;15.50;;;2.10;;
6336;SDS011;3201;49.962;11.618;2022-10-26T08:59:33;26.77;;;2.50;;
6336;SDS011;3201;49.962;11.618;2022-10-26T09:02:20;16.13;;;2.57;;
6336;SDS011;3201;49.962;11.618;2022-10-26T09:04:46;24.27;;;2.73;;
6336;SDS011;3201;49.962;11.618;2022-10-26T09:07:15;18.13;;;2.30;;
6336;SDS011;3201;49.962;11.618;2022-10-26T09:14:56;8.50;;;2.00;;
6336;SDS011;3201;49.962;11.618;2022-10-26T09:23:36;9.43;;;1.87;;
6336;SDS011;3201;49.962;11.618;2022-10-26T09:25:50;11.23;;;2.17;;
6336;SDS011;3201;49.962;11.618;2022-10-26T09:28:22;18.13;;;1.70;;
6336;SDS011;3201;49.962;11.618;2022-10-26T09:30:48;9.97;;;2.23;;
6336;SDS011;3201;49.962;11.618;2022-10-26T09:33:15;13.53;;;2.53;;
6336;SDS011;3201;49.962;11.618;2022-10-26T09:35:43;8.40;;;3.00;;
6336;SDS011;3201;49.962;11.618;2022-10-26T09:38:23;15.83;;;1.63;;
6336;SDS011;3201;49.962;11.618;2022-10-26T09:41:55;7.07;;;2.07;;
6336;SDS011;3201;49.962;11.618;2022-10-26T09:43:58;14.57;;;2.10;;
6336;SDS011;3201;49.962;11.618;2022-10-26T09:46:30;9.57;;;1.50;;
6336;SDS011;3201;49.962;11.618;2022-10-26T09:49:00;16.50;;;2.33;;
6336;SDS011;3201;49.962;11.618;2022-10-26T09:51:29;12.53;;;2.20;;
6336;SDS011;3201;49.962;11.618;2022-10-26T09:53:57;9.63;;;1.60;;
6336;SDS011;3201;49.962;11.618;2022-10-26T09:56:24;5.40;;;1.23;;
6336;SDS011;3201;49.962;11.618;2022-10-26T10:04:25;6.97;;;1.20;;
6336;SDS011;3201;49.962;11.618;2022-10-26T10:06:42;10.10;;;1.60;;
6336;SDS011;3201;49.962;11.618;2022-10-26T10:09:10;9.03;;;2.27;;
6336;SDS011;3201;49.962;11.618;2022-10-26T10:11:38;10.03;;;2.00;;
6336;SDS011;3201;49.962;11.618;2022-10-26T10:14:06;11.00;;;1.70;;
6336;SDS011;3201;49.962;11.618;2022-10-26T10:16:33;5.47;;;1.60;;
6336;SDS011;3201;49.962;11.618;2022-10-26T10:19:02;6.90;;;1.50;;
6336;SDS011;3201;49.962;11.618;2022-10-26T10:22:00;8.77;;;1.40;;
6336;SDS011;3201;49.962;11.618;2022-10-26T10:25:21;8.23;;;1.87;;
6336;SDS011;3201;49.962;11.618;2022-10-26T10:27:00;5.80;;;1.37;;
6336;SDS011;3201;49.962;11.618;2022-10-26T10:29:31;10.03;;;1.83;;
6336;SDS011;3201;49.962;11.618;2022-10-26T10:31:59;11.33;;;1.77;;
6336;SDS011;3201;49.962;11.618;2022-10-26T10:34:29;12.20;;;2.10;;
6336;SDS011;3201;49.962;11.618;2022-10-26T10:36:55;9.13;;;1.67;;
6336;SDS011;3201;49.962;11.618;2022-10-26T10:41:55;4.63;;;1.10;;
6336;SDS011;3201;49.962;11.618;2022-10-26T10:46:58;10.40;;;1.50;;
6336;SDS011;3201;49.962;11.618;2022-10-26T10:49:25;9.50;;;1.93;;
6336;SDS011;3201;49.962;11.618;2022-10-26T10:51:51;5.60;;;1.50;;
6336;SDS011;3201;49.962;11.618;2022-10-26T10:54:34;3.73;;;1.10;;
6336;SDS011;3201;49.962;11.618;2022-10-26T10:57:19;5.03;;;1.80;;
6336;SDS011;3201;49.962;11.618;2022-10-26T11:07:53;5.67;;;1.67;;
6336;SDS011;3201;49.962;11.618;2022-10-26T11:10:22;3.43;;;1.10;;
6336;SDS011;3201;49.962;11.618;2022-10-26T11:12:52;3.43;;;1.70;;
6336;SDS011;3201;49.962;11.618;2022-10-26T11:15:22;8.57;;;1.50;;
6336;SDS011;3201;49.962;11.618;2022-10-26T11:17:53;10.20;;;1.73;;
6336;SDS011;3201;49.962;11.618;2022-10-26T11:20:24;5.57;;;1.07;;
6336;SDS011;3201;49.962;11.618;2022-10-26T11:25:21;5.70;;;1.50;;
6336;SDS011;3201;49.962;11.618;2022-10-26T11:27:51;9.17;;;1.53;;
6336;SDS011;3201;49.962;11.618;2022-10-26T11:30:21;9.13;;;1.77;;
6336;SDS011;3201;49.962;11.618;2022-10-26T11:35:22;7.63;;;1.40;;
6336;SDS011;3201;49.962;11.618;2022-10-26T11:37:55;4.10;;;1.03;;
6336;SDS011;3201;49.962;11.618;2022-10-26T11:40:28;2.77;;;1.40;;
6336;SDS011;3201;49.962;11.618;2022-10-26T11:43:10;1.53;;;0.70;;
6336;SDS011;3201;49.962;11.618;2022-10-26T11:45:55;8.97;;;1.67;;
6336;SDS011;3201;49.962;11.618;2022-10-26T11:48:27;6.83;;;1.60;;
6336;SDS011;3201;49.962;11.618;2022-10-26T11:51:01;1.87;;;1.20;;
6336;SDS011;3201;49.962;11.618;2022-10-26T11:53:27;5.80;;;1.43;;
6336;SDS011;3201;49.962;11.618;2022-10-26T11:55:56;3.30;;;1.10;;
6336;SDS011;3201;49.962;11.618;2022-10-26T11:58:22;2.77;;;1.37;;
6336;SDS011;3201;49.962;11.618;2022-10-26T12:00:51;7.40;;;1.30;;
6336;SDS011;3201;49.962;11.618;2022-10-26T12:03:24;3.50;;;1.23;;
6336;SDS011;3201;49.962;11.618;2022-10-26T12:05:52;5.20;;;2.03;;
6336;SDS011;3201;49.962;11.618;2022-10-26T12:10:49;4.20;;;1.30;;
6336;SDS011;3201;49.962;11.618;2022-10-26T12:13:30;2.37;;;1.20;;
6336;SDS011;3201;49.962;11.618;2022-10-26T12:16:00;3.90;;;1.50;;
6336;SDS011;3201;49.962;11.618;2022-10-26T12:18:33;6.13;;;1.00;;
6336;SDS011;3201;49.962;11.618;2022-10-26T12:21:10;2.50;;;1.30;;
6336;SDS011;3201;49.962;11.618;2022-10-26T12:23:37;7.72;;;1.40;;
6336;SDS011;3201;49.962;11.618;2022-10-26T12:31:39;3.70;;;1.07;;
6336;SDS011;3201;49.962;11.618;2022-10-26T12:34:14;3.57;;;1.40;;
6336;SDS011;3201;49.962;11.618;2022-10-26T12:36:48;2.93;;;1.37;;
6336;SDS011;3201;49.962;11.618;2022-10-26T12:39:30;7.07;;;1.40;;
6336;SDS011;3201;49.962;11.618;2022-10-26T12:44:35;2.00;;;1.03;;
6336;SDS011;3201;49.962;11.618;2022-10-26T12:47:03;2.93;;;1.37;;
6336;SDS011;3201;49.962;11.618;2022-10-26T12:52:42;4.43;;;1.60;;
6336;SDS011;3201;49.962;11.618;2022-10-26T13:00:22;2.67;;;1.50;;
6336;SDS011;3201;49.962;11.618;2022-10-26T13:02:55;4.23;;;0.80;;
6336;SDS011;3201;49.962;11.618;2022-10-26T13:08:39;5.40;;;1.17;;
6336;SDS011;3201;49.962;11.618;2022-10-26T13:11:06;2.13;;;1.00;;
6336;SDS011;3201;49.962;11.618;2022-10-26T13:13:38;7.67;;;1.90;;
6336;SDS011;3201;49.962;11.618;2022-10-26T13:16:04;6.43;;;1.27;;
6336;SDS011;3201;49.962;11.618;2022-10-26T13:18:29;1.87;;;0.80;;
6336;SDS011;3201;49.962;11.618;2022-10-26T13:23:33;2.53;;;1.20;;
6336;SDS011;3201;49.962;11.618;2022-10-26T13:31:05;12.23;;;1.90;;
6336;SDS011;3201;49.962;11.618;2022-10-26T13:33:50;4.93;;;1.77;;
6336;SDS011;3201;49.962;11.618;2022-10-26T13:36:17;1.07;;;0.80;;
6336;SDS011;3201;49.962;11.618;2022-10-26T13:38:49;7.07;;;1.47;;
6336;SDS011;3201;49.962;11.618;2022-10-26T13:41:24;6.93;;;1.63;;
6336;SDS011;3201;49.962;11.618;2022-10-26T13:43:53;3.23;;;1.10;;
6336;SDS011;3201;49.962;11.618;2022-10-26T13:46:24;6.63;;;1.27;;
6336;SDS011;3201;49.962;11.618;2022-10-26T13:48:51;4.63;;;1.27;;
6336;SDS011;3201;49.962;11.618;2022-10-26T13:51:21;3.93;;;1.13;;
6336;SDS011;3201;49.962;11.618;2022-10-26T13:53:57;9.87;;;1.10;;
6336;SDS011;3201;49.962;11.618;2022-10-26T13:56:29;4.90;;;1.23;;
6336;SDS011;3201;49.962;11.618;2022-10-26T13:58:59;5.90;;;1.00;;
6336;SDS011;3201;49.962;11.618;2022-10-26T14:01:28;3.10;;;1.20;;
6336;SDS011;3201;49.962;11.618;2022-10-26T14:03:55;3.00;;;1.17;;
6336;SDS011;3201;49.962;11.618;2022-10-26T14:06:23;1.77;;;1.00;;
6336;SDS011;3201;49.962;11.618;2022-10-26T14:08:59;6.30;;;1.30;;
6336;SDS011;3201;49.962;11.618;2022-10-26T14:11:29;3.23;;;1.07;;
6336;SDS011;3201;49.962;11.618;2022-10-26T14:13:56;1.10;;;0.80;;
6336;SDS011;3201;49.962;11.618;2022-10-26T14:16:22;15.17;;;1.20;;
6336;SDS011;3201;49.962;11.618;2022-10-26T14:18:50;4.17;;;1.20;;
6336;SDS011;3201;49.962;11.618;2022-10-26T14:21:17;5.70;;;1.33;;
6336;SDS011;3201;49.962;11.618;2022-10-26T14:23:45;5.40;;;1.27;;
6336;SDS011;3201;49.962;11.618;2022-10-26T14:26:30;5.87;;;1.23;;
6336;SDS011;3201;49.962;11.618;2022-10-26T14:29:03;4.97;;;1.40;;
6336;SDS011;3201;49.962;11.618;2022-10-26T14:31:40;1.20;;;1.10;;
6336;SDS011;3201;49.962;11.618;2022-10-26T14:34:05;3.10;;;1.83;;
6336;SDS011;3201;49.962;11.618;2022-10-26T14:36:32;2.50;;;1.10;;
6336;SDS011;3201;49.962;11.618;2022-10-26T14:39:21;5.90;;;1.00;;
6336;SDS011;3201;49.962;11.618;2022-10-26T14:43:05;2.90;;;1.20;;
6336;SDS011;3201;49.962;11.618;2022-10-26T14:44:51;4.87;;;1.30;;
6336;SDS011;3201;49.962;11.618;2022-10-26T14:47:22;5.50;;;1.30;;
6336;SDS011;3201;49.962;11.618;2022-10-26T14:49:48;3.00;;;1.13;;
6336;SDS011;3201;49.962;11.618;2022-10-26T14:52:15;2.80;;;1.33;;
6336;SDS011;3201;49.962;11.618;2022-10-26T14:54:55;3.53;;;1.40;;
6336;SDS011;3201;49.962;11.618;2022-10-26T14:57:30;1.70;;;0.87;;
6336;SDS011;3201;49.962;11.618;2022-10-26T15:00:00;3.43;;;1.10;;
6336;SDS011;3201;49.962;11.618;2022-10-26T15:02:29;4.77;;;1.07;;
6336;SDS011;3201;49.962;11.618;2022-10-26T15:04:57;3.00;;;1.10;;
6336;SDS011;3201;49.962;11.618;2022-10-26T15:07:32;1.43;;;0.90;;
6336;SDS011;3201;49.962;11.618;2022-10-26T15:10:00;3.80;;;1.43;;
6336;SDS011;3201;49.962;11.618;2022-10-26T15:12:30;2.27;;;1.00;;
6336;SDS011;3201;49.962;11.618;2022-10-26T15:15:05;2.13;;;1.10;;
6336;SDS011;3201;49.962;11.618;2022-10-26T15:17:51;4.20;;;1.00;;
6336;SDS011;3201;49.962;11.618;2022-10-26T15:20:20;7.20;;;0.90;;
6336;SDS011;3201;49.962;11.618;2022-10-26T15:22:48;5.97;;;1.27;;
6336;SDS011;3201;49.962;11.618;2022-10-26T15:25:16;3.60;;;0.90;;
6336;SDS011;3201;49.962;11.618;2022-10-26T15:27:45;4.23;;;1.27;;
6336;SDS011;3201;49.962;11.618;2022-10-26T15:30:20;2.33;;;1.50;;
6336;SDS011;3201;49.962;11.618;2022-10-26T15:32:48;6.33;;;1.40;;
6336;SDS011;3201;49.962;11.618;2022-10-26T15:37:49;5.70;;;1.30;;
6336;SDS011;3201;49.962;11.618;2022-10-26T15:40:16;3.03;;;1.20;;
6336;SDS011;3201;49.962;11.618;2022-10-26T15:42:41;6.80;;;1.20;;
6336;SDS011;3201;49.962;11.618;2022-10-26T15:45:44;9.40;;;1.33;;
6336;SDS011;3201;49.962;11.618;2022-10-26T15:47:57;4.40;;;1.33;;
6336;SDS011;3201;49.962;11.618;2022-10-26T15:50:25;3.03;;;1.17;;
6336;SDS011;3201;49.962;11.618;2022-10-26T15:52:58;3.43;;;1.47;;
6336;SDS011;3201;49.962;11.618;2022-10-26T15:55:24;1.67;;;0.80;;
6336;SDS011;3201;49.962;11.618;2022-10-26T15:57:50;3.50;;;0.80;;
6336;SDS011;3201;49.962;11.618;2022-10-26T16:00:15;4.53;;;1.23;;
6336;SDS011;3201;49.962;11.618;2022-10-26T16:02:42;3.43;;;0.83;;
6336;SDS011;3201;49.962;11.618;2022-10-26T16:05:09;6.10;;;1.40;;
6336;SDS011;3201;49.962;11.618;2022-10-26T16:07:36;2.27;;;1.17;;
6336;SDS011;3201;49.962;11.618;2022-10-26T16:10:02;7.10;;;0.90;;
6336;SDS011;3201;49.962;11.618;2022-10-26T16:12:27;1.50;;;1.00;;
6336;SDS011;3201;49.962;11.618;2022-10-26T16:14:53;1.57;;;1.00;;
6336;SDS011;3201;49.962;11.618;2022-10-26T16:17:18;3.67;;;1.00;;
6336;SDS011;3201;49.962;11.618;2022-10-26T16:19:43;2.27;;;1.03;;
6336;SDS011;3201;49.962;11.618;2022-10-26T16:22:09;1.37;;;0.90;;
6336;SDS011;3201;49.962;11.618;2022-10-26T16:24:35;1.60;;;0.80;;
6336;SDS011;3201;49.962;11.618;2022-10-26T16:27:00;1.70;;;0.90;;
6336;SDS011;3201;49.962;11.618;2022-10-26T16:29:26;1.20;;;1.00;;
6336;SDS011;3201;49.962;11.618;2022-10-26T16:31:51;3.60;;;1.00;;
6336;SDS011;3201;49.962;11.618;2022-10-26T16:34:16;4.03;;;1.30;;
6336;SDS011;3201;49.962;11.618;2022-10-26T16:36:42;2.03;;;1.10;;
6336;SDS011;3201;49.962;11.618;2022-10-26T16:39:10;2.77;;;1.40;;
6336;SDS011;3201;49.962;11.618;2022-10-26T16:41:36;2.60;;;1.10;;
6336;SDS011;3201;49.962;11.618;2022-10-26T16:44:01;5.83;;;1.37;;
6336;SDS011;3201;49.962;11.618;2022-10-26T16:46:26;2.70;;;1.30;;
6336;SDS011;3201;49.962;11.618;2022-10-26T16:48:52;0.87;;;0.60;;
6336;SDS011;3201;49.962;11.618;2022-10-26T16:51:22;1.87;;;1.20;;
6336;SDS011;3201;49.962;11.618;2022-10-26T16:53:51;1.83;;;1.30;;
6336;SDS011;3201;49.962;11.618;2022-10-26T16:56:18;2.93;;;0.97;;